createdAt,value
2017-07-14T13:43:18.193Z,23.8
2017-07-14T13:44:19.572Z,23.0
2017-07-14T13:45:41.954Z,22.5
2017-07-14T13:46:43.294Z,22.3
2017-07-14T13:48:04.718Z,22.2
2017-07-14T13:49:06.142Z,22.1
2017-07-14T13:50:07.491Z,22.0
2017-07-14T13:51:08.833Z,22.1
2017-07-14T13:52:10.187Z,21.7
2017-07-14T13:53:11.533Z,21.7
2017-07-14T13:54:12.882Z,21.8
2017-07-14T13:55:14.241Z,21.7
2017-07-14T13:56:15.589Z,21.6
2017-07-14T13:57:16.936Z,21.5
2017-07-14T13:58:18.835Z,21.5
2017-07-14T13:59:19.591Z,21.5
2017-07-14T14:00:26.912Z,21.4
2017-07-14T14:01:28.221Z,21.3
2017-07-14T14:02:29.602Z,21.3
2017-07-14T14:03:30.951Z,21.3
2017-07-14T14:04:32.303Z,21.3
2017-07-14T14:05:33.645Z,21.2
2017-07-14T14:06:34.992Z,21.1
2017-07-14T14:07:36.340Z,21.2
2017-07-14T14:08:37.705Z,21.0
2017-07-14T14:09:39.503Z,21.1
2017-07-14T14:10:40.999Z,21.1
2017-07-14T14:11:42.346Z,21.1
2017-07-14T14:12:43.804Z,21.1
2017-07-14T14:13:45.154Z,21.1
2017-07-14T14:14:46.503Z,21.0
2017-07-14T14:15:48.499Z,21.0
2017-07-14T14:16:50.956Z,21.0
2017-07-14T14:17:52.388Z,20.9
2017-07-14T14:18:53.735Z,20.8
2017-07-14T14:19:55.896Z,20.8
2017-07-14T14:20:57.242Z,20.8
2017-07-14T14:21:58.593Z,20.7
2017-07-14T14:22:59.950Z,20.8
2017-07-14T14:24:01.302Z,20.8
2017-07-14T14:25:02.662Z,20.7
2017-07-14T14:26:04.016Z,20.6
2017-07-14T14:27:05.365Z,20.8
2017-07-14T14:28:06.716Z,20.8
2017-07-14T14:29:08.064Z,20.9
2017-07-14T14:30:10.469Z,21.0
2017-07-14T14:31:11.823Z,20.9
2017-07-14T14:32:13.170Z,21.0
2017-07-14T14:33:14.515Z,21.0
2017-07-14T14:34:15.865Z,21.0
2017-07-14T14:35:17.211Z,21.0
2017-07-14T14:36:18.560Z,20.9
2017-07-14T14:37:19.907Z,20.8
2017-07-14T14:38:21.257Z,20.9
2017-07-14T14:39:22.599Z,20.8
2017-07-14T14:40:23.945Z,20.7
2017-07-14T14:41:25.293Z,20.8
2017-07-14T14:42:26.640Z,20.8
2017-07-14T14:43:29.679Z,20.8
2017-07-14T14:44:31.030Z,20.9
2017-07-14T14:45:32.565Z,20.9
2017-07-14T14:46:33.913Z,20.9
2017-07-14T14:47:35.262Z,21.0
2017-07-14T14:48:36.613Z,20.9
2017-07-14T14:49:37.963Z,21.0
2017-07-14T14:50:39.314Z,20.9
2017-07-14T14:51:40.717Z,20.6
2017-07-14T14:52:42.064Z,20.8
2017-07-14T14:53:49.104Z,20.6
2017-07-14T14:54:50.390Z,20.6
2017-07-14T14:55:51.746Z,20.7
2017-07-14T14:56:53.615Z,20.9
2017-07-14T14:57:54.851Z,20.8
2017-07-14T14:58:56.198Z,20.7
2017-07-14T14:59:57.544Z,20.6
2017-07-14T15:00:59.029Z,20.7
2017-07-14T15:02:00.432Z,20.7
2017-07-14T15:03:01.780Z,20.6
2017-07-14T15:04:03.134Z,20.6
2017-07-14T15:05:04.492Z,20.9
2017-07-14T15:06:06.734Z,21.0
2017-07-14T15:07:08.105Z,21.1
2017-07-14T15:08:10.091Z,21.2
2017-07-14T15:09:11.509Z,21.1
2017-07-14T15:10:12.858Z,21.2
2017-07-14T15:11:14.207Z,21.4
2017-07-14T15:12:15.557Z,21.3
2017-07-14T15:13:16.913Z,21.5
2017-07-14T15:14:18.262Z,21.6
2017-07-14T15:15:19.609Z,21.7
2017-07-14T15:16:21.356Z,21.6
2017-07-14T15:17:25.851Z,21.5
2017-07-14T15:18:27.539Z,21.5
2017-07-14T15:19:29.828Z,21.3
2017-07-14T15:20:37.503Z,21.4
2017-07-14T15:21:45.501Z,21.2
2017-07-14T15:22:53.236Z,21.3
2017-07-14T15:24:01.420Z,21.4
2017-07-14T15:25:09.650Z,21.3
2017-07-14T15:26:18.842Z,21.2
2017-07-14T15:27:26.783Z,21.1
2017-07-14T15:28:34.884Z,21.0
2017-07-14T15:29:42.705Z,21.0
2017-07-14T15:30:50.414Z,21.1
2017-07-14T15:31:58.441Z,20.9
2017-07-14T15:32:59.745Z,21.1
2017-07-14T15:34:01.105Z,21.1
2017-07-14T15:35:02.463Z,21.1
2017-07-14T15:36:03.813Z,21.0
2017-07-14T15:37:05.165Z,21.0
2017-07-14T15:38:07.063Z,20.9
2017-07-14T15:39:10.645Z,20.7
2017-07-14T15:40:11.991Z,20.8
2017-07-14T15:41:13.336Z,20.7
2017-07-14T15:42:15.353Z,20.6
2017-07-14T15:43:15.987Z,20.6
2017-07-14T15:44:17.452Z,20.6
2017-07-14T15:45:18.870Z,20.6
2017-07-14T15:46:20.250Z,20.4
2017-07-14T15:47:21.775Z,20.4
2017-07-14T15:48:23.119Z,20.3
2017-07-14T15:49:24.466Z,20.3
2017-07-14T15:50:26.740Z,20.1
2017-07-14T15:51:28.088Z,20.1
2017-07-14T15:52:29.778Z,19.9
2017-07-14T15:53:31.982Z,19.8
2017-07-14T15:54:33.326Z,19.6
2017-07-14T15:55:34.676Z,19.5
2017-07-14T15:56:36.022Z,19.5
2017-07-14T15:57:37.371Z,19.5
2017-07-14T15:58:38.718Z,19.5
2017-07-14T15:59:40.067Z,19.5
2017-07-14T16:00:41.411Z,19.4
2017-07-14T16:01:42.755Z,19.5
2017-07-14T16:02:44.142Z,19.4
2017-07-14T16:03:45.494Z,19.3
2017-07-14T16:04:46.843Z,19.2
2017-07-14T16:05:48.198Z,19.2
2017-07-14T16:06:49.541Z,19.1
2017-07-14T16:07:50.895Z,19.1
2017-07-14T16:08:52.243Z,18.9
2017-07-14T16:09:53.598Z,18.8
2017-07-14T16:10:54.941Z,18.8
2017-07-14T16:11:56.297Z,18.8
2017-07-14T16:12:57.644Z,18.7
2017-07-14T16:13:59.254Z,18.4
2017-07-14T16:15:00.609Z,18.5
2017-07-14T16:16:01.952Z,18.4
2017-07-14T16:17:03.299Z,18.0
2017-07-14T16:18:04.646Z,18.0
2017-07-14T16:19:05.999Z,17.9
2017-07-14T16:20:07.345Z,17.7
2017-07-14T16:21:08.690Z,17.6
2017-07-14T16:22:10.040Z,17.5
2017-07-14T16:23:11.374Z,17.4
2017-07-14T16:24:12.713Z,17.2
2017-07-14T16:25:14.057Z,17.0
2017-07-14T16:26:15.399Z,16.9
2017-07-14T16:27:16.744Z,17.0
2017-07-14T16:28:18.085Z,17.0
2017-07-14T16:29:19.428Z,17.1
2017-07-14T16:30:20.769Z,17.0
2017-07-14T16:31:22.136Z,17.0
2017-07-14T16:32:23.455Z,16.9
2017-07-14T16:33:26.115Z,17.0
2017-07-14T16:34:28.157Z,16.9
2017-07-14T16:35:29.879Z,16.7
2017-07-14T16:36:31.269Z,16.8
2017-07-14T16:37:32.610Z,16.8
2017-07-14T16:38:33.976Z,16.7
2017-07-14T16:39:35.327Z,16.7
2017-07-14T16:40:36.806Z,16.5
2017-07-14T16:41:38.177Z,16.6
2017-07-14T16:42:39.525Z,16.7
2017-07-14T16:43:40.903Z,16.6
2017-07-14T16:44:43.161Z,16.6
2017-07-14T16:45:44.562Z,16.6
2017-07-14T16:46:45.911Z,16.6
2017-07-14T16:47:47.259Z,16.7
2017-07-14T16:48:48.835Z,16.8
2017-07-14T16:49:50.692Z,16.9
2017-07-14T16:50:52.045Z,16.9
2017-07-14T16:51:53.892Z,16.7
2017-07-14T16:52:55.255Z,16.9
2017-07-14T16:53:56.603Z,16.8
2017-07-14T16:54:58.723Z,16.9
2017-07-14T16:56:00.074Z,17.0
2017-07-14T16:57:02.147Z,16.9
2017-07-14T16:58:04.263Z,16.9
2017-07-14T16:59:06.402Z,17.0
2017-07-14T17:00:07.757Z,16.9
2017-07-14T17:01:09.100Z,17.0
2017-07-14T17:02:10.443Z,17.1
2017-07-14T17:03:11.835Z,17.1
2017-07-14T17:04:13.247Z,17.0
2017-07-14T17:05:14.590Z,17.0
2017-07-14T17:06:16.448Z,16.9
2017-07-14T17:07:19.694Z,16.9
2017-07-14T17:08:23.118Z,17.0
2017-07-14T17:09:25.819Z,16.9
2017-07-14T17:10:27.169Z,16.9
2017-07-14T17:11:28.507Z,16.9
2017-07-14T17:12:29.851Z,17.0
2017-07-14T17:13:31.192Z,17.0
2017-07-14T17:14:32.537Z,17.0
2017-07-14T17:15:33.882Z,16.9
2017-07-14T17:16:35.229Z,17.0
2017-07-14T17:17:36.575Z,17.0
2017-07-14T17:18:37.912Z,16.8
2017-07-14T17:19:39.346Z,16.9
2017-07-14T17:20:41.603Z,16.9
2017-07-14T17:21:42.952Z,16.9
2017-07-14T17:22:44.446Z,16.9
2017-07-14T17:23:45.790Z,16.8
2017-07-14T17:24:47.167Z,16.9
2017-07-14T17:25:48.494Z,16.8
2017-07-14T17:26:49.860Z,16.8
2017-07-14T17:27:51.223Z,16.9
2017-07-14T17:28:53.077Z,16.9
2017-07-14T17:29:54.420Z,16.7
2017-07-14T17:30:55.819Z,16.8
2017-07-14T17:31:57.167Z,16.8
2017-07-14T17:32:58.531Z,16.7
2017-07-14T17:34:00.576Z,16.8
2017-07-14T17:35:03.004Z,16.8
2017-07-14T17:36:04.351Z,16.7
2017-07-14T17:37:05.705Z,16.8
2017-07-14T17:38:07.053Z,16.5
2017-07-14T17:39:08.404Z,16.6
2017-07-14T17:40:09.745Z,16.7
2017-07-14T17:41:11.087Z,16.7
2017-07-14T17:42:12.430Z,16.7
2017-07-14T17:43:13.775Z,16.9
2017-07-14T17:44:15.120Z,16.8
2017-07-14T17:45:16.469Z,16.8
2017-07-14T17:46:18.303Z,16.7
2017-07-14T17:47:19.645Z,16.7
2017-07-14T17:48:20.991Z,16.6
2017-07-14T17:49:22.336Z,16.6
2017-07-14T17:50:23.682Z,16.5
2017-07-14T17:51:25.023Z,16.4
2017-07-14T17:52:29.369Z,16.5
2017-07-14T17:53:34.867Z,16.5
2017-07-14T17:54:41.329Z,16.4
2017-07-14T17:55:45.172Z,16.6
2017-07-14T17:56:49.699Z,16.6
2017-07-14T17:57:54.235Z,16.4
2017-07-14T17:59:00.835Z,16.6
2017-07-14T18:00:05.454Z,16.7
2017-07-14T18:01:08.554Z,16.7
2017-07-14T18:02:09.894Z,16.6
2017-07-14T18:03:11.244Z,16.5
2017-07-14T18:04:12.587Z,16.4
2017-07-14T18:05:13.931Z,16.4
2017-07-14T18:06:15.280Z,16.3
2017-07-14T18:07:16.628Z,16.6
2017-07-14T18:08:17.971Z,16.5
2017-07-14T18:09:19.315Z,16.4
2017-07-14T18:10:20.653Z,16.4
2017-07-14T18:11:22.004Z,16.3
2017-07-14T18:12:23.447Z,16.4
2017-07-14T18:13:24.789Z,16.6
2017-07-14T18:14:26.135Z,16.4
2017-07-14T18:15:27.760Z,16.4
2017-07-14T18:16:29.103Z,16.5
2017-07-14T18:17:30.547Z,16.4
2017-07-14T18:18:31.995Z,16.4
2017-07-14T18:19:33.338Z,16.4
2017-07-14T18:20:34.679Z,16.4
2017-07-14T18:21:36.024Z,16.4
2017-07-14T18:22:37.369Z,16.4
2017-07-14T18:23:38.711Z,16.3
2017-07-14T18:24:40.053Z,16.4
2017-07-14T18:25:41.396Z,16.4
2017-07-14T18:26:42.740Z,16.3
2017-07-14T18:27:44.126Z,16.4
2017-07-14T18:28:45.471Z,16.3
2017-07-14T18:29:46.825Z,16.4
2017-07-14T18:30:49.913Z,16.4
2017-07-14T18:31:51.269Z,16.6
2017-07-14T18:32:53.127Z,16.4
2017-07-14T18:33:54.472Z,16.5
2017-07-14T18:34:55.820Z,16.3
2017-07-14T18:35:57.180Z,16.5
2017-07-14T18:36:58.507Z,16.3
2017-07-14T18:37:59.853Z,16.3
2017-07-14T18:39:02.533Z,16.4
2017-07-14T18:40:09.171Z,16.4
2017-07-14T18:41:11.915Z,16.6
2017-07-14T18:42:13.267Z,16.6
2017-07-14T18:43:14.610Z,16.6
2017-07-14T18:44:15.956Z,16.5
2017-07-14T18:45:17.297Z,16.4
2017-07-14T18:46:18.639Z,16.5
2017-07-14T18:47:20.104Z,16.5
2017-07-14T18:48:21.449Z,16.5
2017-07-14T18:49:22.791Z,16.5
2017-07-14T18:50:24.134Z,16.6
2017-07-14T18:51:25.479Z,16.6
2017-07-14T18:52:27.043Z,16.5
2017-07-14T18:53:28.648Z,16.5
2017-07-14T18:54:29.996Z,16.5
2017-07-14T18:55:31.343Z,16.5
2017-07-14T18:56:33.002Z,16.6
2017-07-14T18:57:34.565Z,16.6
2017-07-14T18:58:35.916Z,16.6
2017-07-14T18:59:38.111Z,16.5
2017-07-14T19:00:39.467Z,16.6
2017-07-14T19:01:40.820Z,16.4
2017-07-14T19:02:42.878Z,16.4
2017-07-14T19:03:44.296Z,16.5
2017-07-14T19:04:45.641Z,16.5
2017-07-14T19:05:47.124Z,16.4
2017-07-14T19:06:48.514Z,16.5
2017-07-14T19:07:49.850Z,16.4
2017-07-14T19:08:51.191Z,16.3
2017-07-14T19:09:52.534Z,16.4
2017-07-14T19:10:53.877Z,16.4
2017-07-14T19:11:55.229Z,16.6
2017-07-14T19:12:56.566Z,16.4
2017-07-14T19:13:57.938Z,16.3
2017-07-14T19:14:59.291Z,16.4
2017-07-14T19:16:00.599Z,16.4
2017-07-14T19:17:01.941Z,16.3
2017-07-14T19:18:03.280Z,16.3
2017-07-14T19:19:04.637Z,16.4
2017-07-14T19:20:05.966Z,16.3
2017-07-14T19:21:07.306Z,16.2
2017-07-14T19:22:08.664Z,16.3
2017-07-14T19:23:10.019Z,16.3
2017-07-14T19:24:11.709Z,16.4
2017-07-14T19:25:13.579Z,16.3
2017-07-14T19:26:14.921Z,16.4
2017-07-14T19:27:16.262Z,16.3
2017-07-14T19:28:17.602Z,16.4
2017-07-14T19:29:18.943Z,16.3
2017-07-14T19:30:20.289Z,16.3
2017-07-14T19:31:21.629Z,16.4
2017-07-14T19:32:22.969Z,16.3
2017-07-14T19:33:25.924Z,16.3
2017-07-14T19:34:27.269Z,16.3
2017-07-14T19:35:28.618Z,16.3
2017-07-14T19:36:29.956Z,16.3
2017-07-14T19:37:32.063Z,16.3
2017-07-14T19:38:33.418Z,16.2
2017-07-14T19:39:35.382Z,16.2
2017-07-14T19:40:36.051Z,16.2
2017-07-14T19:41:37.388Z,16.2
2017-07-14T19:42:38.730Z,16.2
2017-07-14T19:43:40.089Z,16.2
2017-07-14T19:44:41.428Z,16.2
2017-07-14T19:45:44.260Z,16.2
2017-07-14T19:46:46.160Z,16.2
2017-07-14T19:47:48.230Z,16.2
2017-07-14T19:48:49.582Z,16.3
2017-07-14T19:49:50.921Z,16.2
2017-07-14T19:50:52.263Z,16.2
2017-07-14T19:51:53.603Z,16.1
2017-07-14T19:52:55.842Z,16.1
2017-07-14T19:53:57.174Z,16.0
2017-07-14T19:54:59.157Z,16.0
2017-07-14T19:56:00.508Z,16.0
2017-07-14T19:57:02.502Z,15.9
2017-07-14T19:58:03.869Z,15.9
2017-07-14T19:59:05.224Z,16.0
2017-07-14T20:00:06.563Z,16.0
2017-07-14T20:01:08.648Z,15.9
2017-07-14T20:02:09.988Z,16.0
2017-07-14T20:03:11.334Z,15.9
2017-07-14T20:04:12.672Z,15.8
2017-07-14T20:05:14.012Z,15.8
2017-07-14T20:06:15.352Z,15.9
2017-07-14T20:07:16.692Z,15.9
2017-07-14T20:08:18.030Z,15.7
2017-07-14T20:09:19.371Z,15.8
2017-07-14T20:10:20.712Z,15.9
2017-07-14T20:11:22.050Z,15.8
2017-07-14T20:12:23.389Z,15.8
2017-07-14T20:13:25.385Z,15.7
2017-07-14T20:14:26.024Z,15.8
2017-07-14T20:15:27.362Z,15.8
2017-07-14T20:16:28.701Z,15.9
2017-07-14T20:17:30.052Z,15.8
2017-07-14T20:18:31.390Z,15.8
2017-07-14T20:19:33.213Z,15.8
2017-07-14T20:20:34.555Z,15.8
2017-07-14T20:21:35.891Z,15.7
2017-07-14T20:22:37.231Z,15.7
2017-07-14T20:23:38.571Z,15.6
2017-07-14T20:24:39.912Z,15.5
2017-07-14T20:25:41.250Z,15.6
2017-07-14T20:26:42.590Z,15.5
2017-07-14T20:27:43.933Z,15.5
2017-07-14T20:28:45.270Z,15.6
2017-07-14T20:29:46.611Z,15.5
2017-07-14T20:30:47.949Z,15.5
2017-07-14T20:31:50.097Z,15.5
2017-07-14T20:32:51.435Z,15.5
2017-07-14T20:33:52.773Z,15.5
2017-07-14T20:34:54.117Z,15.5
2017-07-14T20:35:55.459Z,15.5
2017-07-14T20:36:56.796Z,15.5
2017-07-14T20:37:58.890Z,15.4
2017-07-14T20:38:59.458Z,15.4
2017-07-14T20:40:00.808Z,15.4
2017-07-14T20:41:02.133Z,15.4
2017-07-14T20:42:03.470Z,15.4
2017-07-14T20:43:04.815Z,15.4
2017-07-14T20:44:06.152Z,15.3
2017-07-14T20:45:08.129Z,15.3
2017-07-14T20:46:09.466Z,15.2
2017-07-14T20:47:10.801Z,15.2
2017-07-14T20:48:12.141Z,15.3
2017-07-14T20:49:13.481Z,15.3
2017-07-14T20:50:14.819Z,15.3
2017-07-14T20:51:16.158Z,15.2
2017-07-14T20:52:18.348Z,15.2
2017-07-14T20:53:20.094Z,15.1
2017-07-14T20:54:21.426Z,15.1
2017-07-14T20:55:22.768Z,15.1
2017-07-14T20:56:24.107Z,15.0
2017-07-14T20:57:25.476Z,15.1
2017-07-14T20:58:26.784Z,15.0
2017-07-14T20:59:28.128Z,14.9
2017-07-14T21:00:29.470Z,14.9
2017-07-14T21:01:30.807Z,14.9
2017-07-14T21:02:33.084Z,15.0
2017-07-14T21:03:34.425Z,15.0
2017-07-14T21:04:35.765Z,14.8
2017-07-14T21:05:37.105Z,14.8
2017-07-14T21:06:38.444Z,14.8
2017-07-14T21:07:39.791Z,14.8
2017-07-14T21:08:41.955Z,14.8
2017-07-14T21:09:43.283Z,14.8
2017-07-14T21:10:44.619Z,14.8
2017-07-14T21:11:45.961Z,14.7
2017-07-14T21:12:47.296Z,14.7
2017-07-14T21:13:48.641Z,14.7
2017-07-14T21:14:49.977Z,14.8
2017-07-14T21:15:51.314Z,14.7
2017-07-14T21:16:52.653Z,14.7
2017-07-14T21:17:54.723Z,14.6
2017-07-14T21:18:56.063Z,14.5
2017-07-14T21:19:57.402Z,14.7
2017-07-14T21:20:58.740Z,14.7
2017-07-14T21:22:00.079Z,14.7
2017-07-14T21:23:01.415Z,14.7
2017-07-14T21:24:02.752Z,14.6
2017-07-14T21:25:04.089Z,14.7
2017-07-14T21:26:05.422Z,14.5
2017-07-14T21:27:06.763Z,14.5
2017-07-14T21:28:08.102Z,14.6
2017-07-14T21:29:09.445Z,14.6
2017-07-14T21:30:10.782Z,14.7
2017-07-14T21:31:12.119Z,14.5
2017-07-14T21:32:13.456Z,14.7
2017-07-14T21:33:14.795Z,14.5
2017-07-14T21:34:16.137Z,14.5
2017-07-14T21:35:17.476Z,14.6
2017-07-14T21:36:19.568Z,14.5
2017-07-14T21:37:20.908Z,14.6
2017-07-14T21:38:22.676Z,14.5
2017-07-14T21:39:23.940Z,14.5
2017-07-14T21:40:25.382Z,14.3
2017-07-14T21:41:26.721Z,14.4
2017-07-14T21:42:28.066Z,14.4
2017-07-14T21:43:29.409Z,14.4
2017-07-14T21:44:30.746Z,14.3
2017-07-14T21:45:32.084Z,14.4
2017-07-14T21:46:33.420Z,14.4
2017-07-14T21:47:34.763Z,14.4
2017-07-14T21:48:36.100Z,14.4
2017-07-14T21:49:37.440Z,14.3
2017-07-14T21:50:38.776Z,14.3
2017-07-14T21:51:40.114Z,14.3
2017-07-14T21:52:41.452Z,14.3
2017-07-14T21:53:42.789Z,14.3
2017-07-14T21:54:44.126Z,14.3
2017-07-14T21:55:45.465Z,14.2
2017-07-14T21:56:46.804Z,14.1
2017-07-14T21:57:48.145Z,14.1
2017-07-14T21:58:49.484Z,14.3
2017-07-14T21:59:50.821Z,14.2
2017-07-14T22:00:52.157Z,14.2
2017-07-14T22:01:53.496Z,14.3
2017-07-14T22:02:54.835Z,14.3
2017-07-14T22:03:56.174Z,14.3
2017-07-14T22:04:57.512Z,14.4
2017-07-14T22:05:58.849Z,14.4
2017-07-14T22:07:00.186Z,14.4
2017-07-14T22:08:01.525Z,14.4
2017-07-14T22:09:02.863Z,14.3
2017-07-14T22:10:04.199Z,14.4
2017-07-14T22:11:05.538Z,14.4
2017-07-14T22:12:06.882Z,14.4
2017-07-14T22:13:08.220Z,14.5
2017-07-14T22:14:09.557Z,14.4
2017-07-14T22:15:10.895Z,14.4
2017-07-14T22:16:12.235Z,14.4
2017-07-14T22:17:13.572Z,14.4
2017-07-14T22:18:14.911Z,14.4
2017-07-14T22:19:16.251Z,14.4
2017-07-14T22:20:17.587Z,14.4
2017-07-14T22:21:18.923Z,14.5
2017-07-14T22:22:20.259Z,14.4
2017-07-14T22:23:21.602Z,14.5
2017-07-14T22:24:22.940Z,14.4
2017-07-14T22:25:24.279Z,14.3
2017-07-14T22:26:25.618Z,14.4
2017-07-14T22:27:26.954Z,14.5
2017-07-14T22:28:28.292Z,14.3
2017-07-14T22:29:29.628Z,14.4
2017-07-14T22:30:30.972Z,14.4
2017-07-14T22:31:32.305Z,14.4
2017-07-14T22:32:33.649Z,14.3
2017-07-14T22:33:34.989Z,14.4
2017-07-14T22:34:36.325Z,14.4
2017-07-14T22:35:37.665Z,14.4
2017-07-14T22:36:39.005Z,14.3
2017-07-14T22:37:40.342Z,14.3
2017-07-14T22:38:41.679Z,14.3
2017-07-14T22:39:43.019Z,14.3
2017-07-14T22:40:44.357Z,14.2
2017-07-14T22:41:45.694Z,14.3
2017-07-14T22:42:47.036Z,14.3
2017-07-14T22:43:48.371Z,14.2
2017-07-14T22:44:49.709Z,14.3
2017-07-14T22:45:51.060Z,14.2
2017-07-14T22:46:52.394Z,14.2
2017-07-14T22:47:55.019Z,14.2
2017-07-14T22:48:56.356Z,14.2
2017-07-14T22:49:57.693Z,14.1
2017-07-14T22:50:59.033Z,14.1
2017-07-14T22:52:00.370Z,14.1
2017-07-14T22:53:01.708Z,14.1
2017-07-14T22:54:03.052Z,14.1
2017-07-14T22:55:04.392Z,14.1
2017-07-14T22:56:05.730Z,14.1
2017-07-14T22:57:07.068Z,14.0
2017-07-14T22:58:08.405Z,14.1
2017-07-14T22:59:09.744Z,14.0
2017-07-14T23:00:11.084Z,13.9
2017-07-14T23:01:12.424Z,14.1
2017-07-14T23:02:13.774Z,13.9
2017-07-14T23:03:15.107Z,14.1
2017-07-14T23:04:16.448Z,13.9
2017-07-14T23:05:18.336Z,14.0
2017-07-14T23:06:19.672Z,13.9
2017-07-14T23:07:21.031Z,13.9
2017-07-14T23:08:22.424Z,13.9
2017-07-14T23:09:23.763Z,13.9
2017-07-14T23:10:25.103Z,13.8
2017-07-14T23:11:26.443Z,13.9
2017-07-14T23:12:27.778Z,13.8
2017-07-14T23:13:29.115Z,13.8
2017-07-14T23:14:32.727Z,13.8
2017-07-14T23:15:34.067Z,13.8
2017-07-14T23:16:35.406Z,13.8
2017-07-14T23:17:36.744Z,13.8
2017-07-14T23:18:38.081Z,13.8
2017-07-14T23:19:39.419Z,13.9
2017-07-14T23:20:40.755Z,13.8
2017-07-14T23:21:42.093Z,13.8
2017-07-14T23:22:43.431Z,13.7
2017-07-14T23:23:44.772Z,13.9
2017-07-14T23:24:46.112Z,13.7
2017-07-14T23:25:47.451Z,13.7
2017-07-14T23:26:48.795Z,13.8
2017-07-14T23:27:50.137Z,13.8
2017-07-14T23:28:51.473Z,13.7
2017-07-14T23:29:52.814Z,13.8
2017-07-14T23:30:54.158Z,13.6
2017-07-14T23:31:56.222Z,13.8
2017-07-14T23:32:57.558Z,13.7
2017-07-14T23:33:58.898Z,13.7
2017-07-14T23:35:00.254Z,13.7
2017-07-14T23:36:01.597Z,13.6
2017-07-14T23:37:02.949Z,13.7
2017-07-14T23:38:04.289Z,13.7
2017-07-14T23:39:05.626Z,13.7
2017-07-14T23:40:06.962Z,13.6
2017-07-14T23:41:08.299Z,13.6
2017-07-14T23:42:09.638Z,13.6
2017-07-14T23:43:10.976Z,13.7
2017-07-14T23:44:12.316Z,13.6
2017-07-14T23:45:13.655Z,13.6
2017-07-14T23:46:14.990Z,13.6
2017-07-14T23:47:16.326Z,13.6
2017-07-14T23:48:17.671Z,13.5
2017-07-14T23:49:19.906Z,13.6
2017-07-14T23:50:21.128Z,13.6
2017-07-14T23:51:22.469Z,13.6
2017-07-14T23:52:24.557Z,13.6
2017-07-14T23:53:25.892Z,13.6
2017-07-14T23:54:27.231Z,13.6
2017-07-14T23:55:28.568Z,13.7
2017-07-14T23:56:29.911Z,13.6
2017-07-14T23:57:31.253Z,13.6
2017-07-14T23:58:32.585Z,13.6
2017-07-14T23:59:33.927Z,13.5
